createdAt,value
2017-04-09T00:00:02.775Z,6.94
2017-04-09T00:15:02.242Z,6.78
2017-04-09T00:30:02.645Z,6.6
2017-04-09T00:45:03.080Z,6.4
2017-04-09T01:00:02.771Z,6.21
2017-04-09T01:15:02.951Z,6
2017-04-09T01:30:03.352Z,5.86
2017-04-09T01:45:02.873Z,5.68
2017-04-09T02:00:03.092Z,5.53
2017-04-09T02:15:02.848Z,5.4
2017-04-09T02:30:02.603Z,5.31
2017-04-09T02:45:03.332Z,5.2
2017-04-09T03:00:02.175Z,5.1
2017-04-09T03:15:02.225Z,4.96
2017-04-09T03:30:02.225Z,4.84
2017-04-09T03:45:03.001Z,4.79
2017-04-09T04:00:02.969Z,4.68
2017-04-09T04:15:02.708Z,4.57
2017-04-09T04:30:02.504Z,4.52
2017-04-09T04:45:03.046Z,4.44
2017-04-09T05:00:02.706Z,4.41
2017-04-09T05:15:02.742Z,4.46
2017-04-09T05:30:02.819Z,4.69
2017-04-09T05:45:02.747Z,5.09
2017-04-09T06:00:03.307Z,5.36
2017-04-09T06:15:02.507Z,5.87
2017-04-09T06:30:03.142Z,6.44
2017-04-09T06:45:02.717Z,6.93
2017-04-09T07:00:02.851Z,7.45
2017-04-09T07:15:02.232Z,7.98
2017-04-09T07:30:02.255Z,8.41
2017-04-09T07:45:03.337Z,8.88
2017-04-09T08:00:03.127Z,9.39
2017-04-09T08:15:03.270Z,10
2017-04-09T08:30:02.406Z,10.57
2017-04-09T08:45:02.453Z,10.97
2017-04-09T09:00:03.045Z,11.49
2017-04-09T09:15:03.037Z,12.1
2017-04-09T09:30:02.723Z,13.54
2017-04-09T09:45:02.875Z,18.43
2017-04-09T10:00:02.829Z,20.95
2017-04-09T10:15:03.153Z,21.01
2017-04-09T10:30:02.834Z,21.06
2017-04-09T10:45:02.708Z,21.19
2017-04-09T11:00:03.160Z,21.55
2017-04-09T11:15:03.081Z,21.1
2017-04-09T11:30:02.644Z,20.79
2017-04-09T11:45:02.709Z,21.42
2017-04-09T12:00:03.170Z,21.11
2017-04-09T12:15:02.438Z,20.57
2017-04-09T12:30:02.826Z,20.79
2017-04-09T12:45:02.743Z,20.84
2017-04-09T13:00:02.784Z,20.68
2017-04-09T13:15:02.449Z,20.14
2017-04-09T13:30:02.796Z,20.13
2017-04-09T13:45:03.392Z,20.14
2017-04-09T14:00:02.716Z,20.03
2017-04-09T14:15:03.144Z,20.13
2017-04-09T14:30:02.616Z,20.25
2017-04-09T14:45:02.594Z,20.21
2017-04-09T15:00:02.279Z,20.25
2017-04-09T15:15:02.722Z,20.11
2017-04-09T15:30:02.268Z,20.1
2017-04-09T15:45:02.609Z,20.1
2017-04-09T16:00:02.615Z,20.49
2017-04-09T16:15:02.674Z,19.85
2017-04-09T16:30:02.222Z,19.22
2017-04-09T16:45:03.259Z,18.89
2017-04-09T17:00:02.834Z,18.58
2017-04-09T17:15:03.187Z,18.08
2017-04-09T17:30:02.339Z,17.48
2017-04-09T17:45:03.129Z,16.89
2017-04-09T18:00:02.240Z,16.1
2017-04-09T18:15:03.093Z,15.36
2017-04-09T18:30:03.259Z,14.73
2017-04-09T18:45:02.802Z,14.24
2017-04-09T19:00:03.160Z,13.81
2017-04-09T19:15:02.964Z,13.47
2017-04-09T19:30:02.288Z,13.11
2017-04-09T19:45:03.078Z,12.89
2017-04-09T20:00:02.838Z,12.73
2017-04-09T20:15:02.643Z,12.6
2017-04-09T20:30:03.140Z,12.48
2017-04-09T20:45:03.115Z,12.31
2017-04-09T21:00:02.647Z,12.18
2017-04-09T21:15:02.477Z,12
2017-04-09T21:30:02.448Z,11.88
2017-04-09T21:45:02.642Z,11.74
2017-04-09T22:00:03.208Z,11.6
2017-04-09T22:15:02.529Z,11.44
2017-04-09T22:30:02.216Z,11.45
2017-04-09T22:45:03.118Z,11.41
2017-04-09T23:00:03.087Z,11.39
2017-04-09T23:15:02.262Z,11.25
2017-04-09T23:30:02.672Z,10.93
2017-04-09T23:45:02.761Z,11.05
